createdAt,value
2022-10-16T00:01:14.710Z,15.50
2022-10-16T00:03:42.995Z,15.50
2022-10-16T00:06:11.091Z,15.50
2022-10-16T00:08:38.495Z,15.60
2022-10-16T00:11:06.839Z,15.60
2022-10-16T00:13:34.819Z,15.60
2022-10-16T00:16:02.557Z,15.50
2022-10-16T00:18:30.518Z,15.50
2022-10-16T00:21:03.507Z,15.50
2022-10-16T00:23:30.197Z,15.50
2022-10-16T00:25:59.009Z,15.50
2022-10-16T00:28:25.808Z,15.50
2022-10-16T00:30:52.750Z,15.50
2022-10-16T00:33:19.798Z,15.50
2022-10-16T00:35:47.006Z,15.40
2022-10-16T00:38:13.623Z,15.50
2022-10-16T00:40:40.514Z,15.50
2022-10-16T00:43:34.953Z,15.50
2022-10-16T00:46:10.495Z,15.60
2022-10-16T00:48:37.352Z,15.60
2022-10-16T00:51:05.534Z,15.60
2022-10-16T00:53:32.228Z,15.70
2022-10-16T00:55:58.845Z,15.60
2022-10-16T00:58:25.602Z,15.60
2022-10-16T01:00:52.206Z,15.60
2022-10-16T01:03:36.683Z,15.60
2022-10-16T01:06:15.585Z,15.60
2022-10-16T01:08:49.260Z,15.60
2022-10-16T01:11:23.026Z,15.50
2022-10-16T01:13:59.291Z,15.60
2022-10-16T01:16:39.918Z,15.50
2022-10-16T01:19:14.978Z,15.50
2022-10-16T01:21:45.487Z,15.50
2022-10-16T01:24:18.887Z,15.50
2022-10-16T01:27:11.701Z,15.50
2022-10-16T01:29:41.317Z,15.50
2022-10-16T01:32:19.534Z,15.50
2022-10-16T01:34:51.971Z,15.40
2022-10-16T01:37:30.521Z,15.40
2022-10-16T01:40:01.782Z,15.40
2022-10-16T01:42:35.446Z,15.40
2022-10-16T01:45:03.900Z,15.30
2022-10-16T01:47:32.230Z,15.30
2022-10-16T01:50:00.763Z,15.30
2022-10-16T01:52:29.869Z,15.30
2022-10-16T01:54:59.197Z,15.20
2022-10-16T01:57:26.938Z,16.00
2022-10-16T01:59:57.372Z,15.20
2022-10-16T02:02:26.976Z,15.20
2022-10-16T02:04:59.038Z,15.30
2022-10-16T02:07:25.947Z,15.20
2022-10-16T02:09:52.578Z,15.10
2022-10-16T02:12:29.369Z,15.10
2022-10-16T02:14:56.384Z,15.10
2022-10-16T02:17:23.829Z,15.10
2022-10-16T02:19:54.074Z,15.10
2022-10-16T02:22:27.084Z,15.10
2022-10-16T02:25:06.992Z,15.10
2022-10-16T02:27:41.380Z,15.10
2022-10-16T02:30:22.694Z,15.10
2022-10-16T02:32:50.265Z,15.10
2022-10-16T02:35:19.698Z,15.00
2022-10-16T02:37:47.821Z,15.00
2022-10-16T02:40:15.441Z,14.90
2022-10-16T02:42:42.519Z,14.90
2022-10-16T02:45:10.971Z,14.90
2022-10-16T02:47:38.141Z,14.90
2022-10-16T02:50:05.560Z,14.90
2022-10-16T02:52:32.383Z,14.90
2022-10-16T02:54:58.977Z,14.90
2022-10-16T02:57:25.919Z,14.80
2022-10-16T02:59:53.052Z,14.80
2022-10-16T03:02:19.746Z,14.80
2022-10-16T03:04:46.403Z,14.80
2022-10-16T03:07:13.188Z,14.80
2022-10-16T03:09:39.793Z,14.80
2022-10-16T03:12:06.395Z,14.90
2022-10-16T03:14:33.130Z,14.80
2022-10-16T03:16:59.746Z,14.80
2022-10-16T03:19:26.352Z,14.80
2022-10-16T03:21:52.934Z,14.80
2022-10-16T03:24:19.568Z,14.80
2022-10-16T03:26:46.155Z,14.90
2022-10-16T03:29:12.790Z,14.90
2022-10-16T03:31:39.382Z,14.80
2022-10-16T03:34:06.011Z,14.80
2022-10-16T03:36:32.649Z,14.80
2022-10-16T03:38:59.310Z,14.80
2022-10-16T03:41:25.945Z,14.80
2022-10-16T03:43:52.549Z,14.70
2022-10-16T03:46:19.167Z,14.70
2022-10-16T03:48:45.783Z,14.70
2022-10-16T03:51:12.358Z,14.70
2022-10-16T03:53:38.960Z,14.70
2022-10-16T03:56:05.853Z,14.60
2022-10-16T03:58:32.464Z,14.60
2022-10-16T04:00:59.146Z,14.60
2022-10-16T04:03:25.874Z,14.60
2022-10-16T04:05:52.526Z,14.70
2022-10-16T04:08:19.367Z,14.70
2022-10-16T04:10:46.034Z,14.60
2022-10-16T04:13:13.283Z,14.60
2022-10-16T04:15:39.934Z,14.60
2022-10-16T04:18:06.994Z,14.60
2022-10-16T04:20:34.392Z,14.50
2022-10-16T04:23:01.345Z,14.60
2022-10-16T04:25:27.933Z,14.60
2022-10-16T04:27:55.101Z,14.70
2022-10-16T04:30:22.497Z,14.60
2022-10-16T04:32:51.048Z,14.50
2022-10-16T04:35:19.019Z,14.60
2022-10-16T04:37:45.634Z,14.60
2022-10-16T04:40:12.734Z,14.60
2022-10-16T04:42:39.437Z,14.60
2022-10-16T04:45:06.907Z,14.60
2022-10-16T04:47:33.489Z,14.60
2022-10-16T04:50:03.407Z,14.60
2022-10-16T04:52:30.354Z,14.70
2022-10-16T04:55:01.398Z,14.60
2022-10-16T04:57:28.521Z,14.60
2022-10-16T04:59:55.368Z,14.60
2022-10-16T05:02:22.171Z,14.60
2022-10-16T05:04:48.786Z,14.60
2022-10-16T05:07:15.392Z,14.60
2022-10-16T05:09:42.121Z,14.50
2022-10-16T05:12:08.731Z,14.50
2022-10-16T05:14:35.352Z,14.60
2022-10-16T05:17:02.105Z,14.60
2022-10-16T05:19:29.132Z,14.60
2022-10-16T05:21:56.266Z,14.60
2022-10-16T05:24:23.120Z,14.50
2022-10-16T05:26:50.475Z,14.50
2022-10-16T05:29:17.227Z,14.60
2022-10-16T05:31:43.883Z,14.60
2022-10-16T05:34:10.538Z,14.60
2022-10-16T05:36:37.309Z,14.60
2022-10-16T05:39:04.440Z,14.60
2022-10-16T05:41:31.050Z,14.60
2022-10-16T05:43:57.749Z,14.60
2022-10-16T05:46:24.400Z,14.70
2022-10-16T05:48:54.218Z,14.60
2022-10-16T05:51:20.838Z,14.60
2022-10-16T05:53:47.547Z,14.60
2022-10-16T05:56:14.321Z,14.60
2022-10-16T05:58:45.199Z,14.80
2022-10-16T06:01:18.153Z,14.60
2022-10-16T06:03:45.534Z,14.70
2022-10-16T06:06:14.494Z,14.70
2022-10-16T06:08:42.421Z,14.70
2022-10-16T06:11:11.783Z,14.80
2022-10-16T06:13:39.855Z,14.80
2022-10-16T06:16:07.023Z,14.80
2022-10-16T06:18:33.636Z,14.80
2022-10-16T06:21:00.333Z,14.80
2022-10-16T06:23:29.512Z,14.80
2022-10-16T06:26:12.608Z,14.90
2022-10-16T06:28:40.007Z,15.70
2022-10-16T06:31:08.796Z,16.30
2022-10-16T06:33:36.563Z,16.40
2022-10-16T06:36:05.821Z,16.60
2022-10-16T06:38:33.206Z,16.60
2022-10-16T06:40:59.989Z,16.80
2022-10-16T06:43:27.448Z,16.80
2022-10-16T06:45:58.000Z,16.50
2022-10-16T06:48:25.446Z,16.00
2022-10-16T06:51:09.430Z,15.80
2022-10-16T06:53:39.887Z,16.40
2022-10-16T06:56:19.694Z,16.20
2022-10-16T06:58:47.054Z,15.90
2022-10-16T07:01:14.743Z,15.60
2022-10-16T07:03:42.851Z,15.40
2022-10-16T07:06:11.647Z,15.70
2022-10-16T07:08:40.420Z,16.10
2022-10-16T07:11:09.832Z,16.50
2022-10-16T07:13:37.659Z,16.40
2022-10-16T07:16:16.356Z,16.10
2022-10-16T07:18:46.128Z,15.80
2022-10-16T07:21:21.536Z,15.60
2022-10-16T07:23:55.894Z,15.70
2022-10-16T07:26:23.328Z,15.60
2022-10-16T07:28:50.544Z,15.80
2022-10-16T07:31:19.819Z,16.10
2022-10-16T07:33:48.781Z,16.20
2022-10-16T07:36:17.761Z,16.30
2022-10-16T07:38:45.373Z,16.30
2022-10-16T07:41:14.395Z,16.00
2022-10-16T07:43:41.262Z,15.90
2022-10-16T07:46:08.089Z,15.70
2022-10-16T07:48:35.907Z,15.50
2022-10-16T07:51:07.214Z,15.60
2022-10-16T07:53:34.819Z,15.60
2022-10-16T07:56:06.783Z,15.50
2022-10-16T07:58:34.951Z,15.60
2022-10-16T08:01:06.035Z,15.50
2022-10-16T08:03:32.831Z,15.40
2022-10-16T08:06:00.365Z,15.50
2022-10-16T08:08:27.804Z,15.50
2022-10-16T08:10:55.231Z,15.40
2022-10-16T08:13:22.345Z,15.50
2022-10-16T08:15:48.983Z,15.40
2022-10-16T08:18:16.018Z,15.50
2022-10-16T08:20:43.508Z,15.50
2022-10-16T08:23:12.199Z,15.40
2022-10-16T08:25:39.343Z,15.40
2022-10-16T08:28:07.787Z,15.40
2022-10-16T08:30:34.984Z,15.50
2022-10-16T08:33:02.353Z,15.50
2022-10-16T08:35:29.197Z,15.60
2022-10-16T08:37:55.918Z,15.70
2022-10-16T08:40:30.841Z,15.90
2022-10-16T08:43:15.220Z,16.00
2022-10-16T08:45:49.730Z,16.00
2022-10-16T08:48:21.254Z,15.90
2022-10-16T08:50:51.179Z,15.90
2022-10-16T08:53:29.574Z,15.90
2022-10-16T08:55:56.359Z,15.90
2022-10-16T08:58:27.425Z,15.90
2022-10-16T09:01:00.121Z,15.90
2022-10-16T09:03:44.760Z,15.90
2022-10-16T09:06:40.147Z,15.90
2022-10-16T09:09:19.864Z,16.00
2022-10-16T09:12:04.950Z,16.00
2022-10-16T09:14:51.862Z,16.90
2022-10-16T09:17:24.560Z,16.20
2022-10-16T09:19:58.565Z,16.20
2022-10-16T09:22:29.635Z,16.30
2022-10-16T09:25:01.546Z,16.30
2022-10-16T09:27:28.501Z,16.30
2022-10-16T09:29:58.897Z,16.40
2022-10-16T09:32:26.777Z,16.50
2022-10-16T09:34:57.318Z,16.50
2022-10-16T09:37:26.005Z,16.60
2022-10-16T09:39:55.066Z,16.60
2022-10-16T09:42:32.178Z,16.60
2022-10-16T09:44:59.190Z,16.70
2022-10-16T09:47:28.937Z,16.80
2022-10-16T09:50:02.381Z,16.80
2022-10-16T09:52:30.653Z,17.00
2022-10-16T09:55:02.574Z,17.00
2022-10-16T09:57:31.062Z,17.00
2022-10-16T09:59:59.266Z,16.90
2022-10-16T10:02:37.557Z,16.90
2022-10-16T10:05:06.587Z,16.90
2022-10-16T10:07:43.660Z,16.90
2022-10-16T10:10:31.722Z,17.00
2022-10-16T10:12:58.608Z,17.00
2022-10-16T10:15:27.682Z,17.00
2022-10-16T10:17:56.397Z,17.00
2022-10-16T10:20:36.003Z,16.90
2022-10-16T10:23:24.679Z,16.90
2022-10-16T10:26:05.622Z,16.90
2022-10-16T10:28:54.211Z,17.00
2022-10-16T10:31:39.547Z,17.00
2022-10-16T10:34:40.231Z,17.00
2022-10-16T10:37:36.216Z,17.10
2022-10-16T10:40:44.860Z,17.10
2022-10-16T10:43:34.500Z,17.20
2022-10-16T10:46:05.915Z,17.30
2022-10-16T10:48:55.319Z,17.30
2022-10-16T10:51:48.727Z,17.40
2022-10-16T10:54:31.167Z,17.40
2022-10-16T10:57:12.703Z,17.50
2022-10-16T11:00:18.300Z,17.60
2022-10-16T11:03:14.793Z,17.60
2022-10-16T11:05:46.822Z,17.60
2022-10-16T11:08:36.518Z,17.50
2022-10-16T11:11:25.409Z,17.60
2022-10-16T11:14:03.870Z,17.70
2022-10-16T11:16:37.835Z,17.70
2022-10-16T11:19:32.818Z,17.80
2022-10-16T11:22:23.900Z,17.90
2022-10-16T11:25:00.641Z,17.90
2022-10-16T11:27:51.304Z,17.90
2022-10-16T11:30:27.320Z,17.90
2022-10-16T11:33:04.458Z,18.00
2022-10-16T11:35:39.178Z,18.10
2022-10-16T11:38:16.936Z,18.00
2022-10-16T11:40:48.572Z,19.60
2022-10-16T11:43:26.423Z,18.00
2022-10-16T11:45:56.377Z,18.00
2022-10-16T11:48:25.843Z,17.90
2022-10-16T11:51:01.130Z,17.90
2022-10-16T11:53:40.270Z,17.80
2022-10-16T11:56:07.613Z,17.80
2022-10-16T11:58:40.382Z,17.90
2022-10-16T12:04:28.563Z,17.80
2022-10-16T12:07:09.268Z,17.70
2022-10-16T12:09:39.398Z,17.60
2022-10-16T12:12:24.681Z,17.70
2022-10-16T12:15:22.468Z,17.60
2022-10-16T12:17:57.477Z,17.70
2022-10-16T12:20:28.230Z,17.60
2022-10-16T12:23:04.695Z,17.70
2022-10-16T12:25:47.187Z,17.90
2022-10-16T12:28:16.708Z,18.00
2022-10-16T12:30:53.270Z,18.10
2022-10-16T12:33:27.105Z,18.20
2022-10-16T12:35:54.908Z,18.20
2022-10-16T12:38:34.884Z,18.30
2022-10-16T12:41:04.815Z,18.20
2022-10-16T12:43:43.621Z,18.20
2022-10-16T12:46:10.252Z,18.30
2022-10-16T12:48:49.017Z,18.30
2022-10-16T12:51:31.387Z,18.40
2022-10-16T12:54:31.600Z,18.40
2022-10-16T12:57:13.672Z,18.40
2022-10-16T13:00:02.342Z,18.50
2022-10-16T13:02:43.765Z,18.40
2022-10-16T13:08:26.814Z,18.70
2022-10-16T13:11:18.771Z,18.70
2022-10-16T13:14:28.337Z,18.70
2022-10-16T13:17:13.072Z,18.70
2022-10-16T13:20:04.078Z,18.50
2022-10-16T13:22:53.790Z,18.60
2022-10-16T13:25:26.263Z,18.50
2022-10-16T13:28:00.605Z,18.40
2022-10-16T13:30:32.636Z,18.40
2022-10-16T13:33:22.583Z,18.40
2022-10-16T13:35:57.226Z,18.40
2022-10-16T13:38:33.152Z,18.50
2022-10-16T13:41:14.339Z,18.50
2022-10-16T13:43:44.257Z,18.50
2022-10-16T13:46:19.489Z,18.50
2022-10-16T13:48:57.303Z,18.30
2022-10-16T13:53:58.082Z,18.20
2022-10-16T13:56:28.721Z,18.30
2022-10-16T13:59:07.444Z,18.20
2022-10-16T14:01:43.916Z,18.20
2022-10-16T14:04:13.246Z,18.20
2022-10-16T14:06:45.409Z,18.20
2022-10-16T14:09:27.683Z,18.30
2022-10-16T14:11:57.817Z,18.30
2022-10-16T14:14:25.446Z,18.40
2022-10-16T14:16:52.322Z,18.40
2022-10-16T14:19:26.035Z,18.40
2022-10-16T14:21:53.095Z,18.40
2022-10-16T14:24:27.525Z,18.40
2022-10-16T14:26:57.236Z,18.40
2022-10-16T14:29:25.311Z,18.40
2022-10-16T14:32:01.891Z,18.40
2022-10-16T14:34:31.382Z,18.40
2022-10-16T14:39:40.884Z,18.40
2022-10-16T14:42:17.059Z,18.30
2022-10-16T14:44:43.850Z,18.20
2022-10-16T14:47:15.071Z,18.30
2022-10-16T14:49:43.246Z,18.40
2022-10-16T14:52:11.968Z,18.40
2022-10-16T14:54:38.766Z,18.40
2022-10-16T14:57:06.068Z,18.30
2022-10-16T14:59:39.436Z,18.30
2022-10-16T15:02:45.014Z,18.30
2022-10-16T15:05:33.122Z,18.40
2022-10-16T15:07:59.745Z,18.30
2022-10-16T15:10:29.715Z,18.20
2022-10-16T15:12:56.333Z,18.10
2022-10-16T15:15:34.707Z,18.20
2022-10-16T15:18:02.151Z,18.10
2022-10-16T15:20:31.290Z,18.10
2022-10-16T15:22:58.533Z,18.00
2022-10-16T15:25:40.664Z,18.00
2022-10-16T15:28:08.078Z,18.00
2022-10-16T15:30:35.318Z,18.00
2022-10-16T15:33:02.348Z,18.00
2022-10-16T15:35:29.127Z,17.90
2022-10-16T15:37:55.722Z,17.80
2022-10-16T15:40:23.534Z,17.80
2022-10-16T15:42:50.314Z,17.80
2022-10-16T15:45:17.203Z,17.70
2022-10-16T15:47:45.855Z,17.70
2022-10-16T15:50:14.512Z,17.70
2022-10-16T15:52:42.094Z,17.70
2022-10-16T15:55:13.412Z,17.70
2022-10-16T15:57:41.639Z,17.60
2022-10-16T16:00:11.263Z,17.50
2022-10-16T16:02:37.958Z,17.50
2022-10-16T16:05:05.649Z,17.40
2022-10-16T16:07:36.328Z,17.30
2022-10-16T16:10:04.789Z,17.30
2022-10-16T16:12:31.457Z,17.20
2022-10-16T16:15:00.812Z,17.40
2022-10-16T16:17:31.956Z,17.70
2022-10-16T16:19:58.860Z,17.80
2022-10-16T16:22:26.274Z,17.80
2022-10-16T16:24:53.062Z,17.90
2022-10-16T16:27:20.800Z,17.90
2022-10-16T16:29:48.639Z,17.80
2022-10-16T16:32:15.379Z,17.80
2022-10-16T16:34:42.066Z,17.80
2022-10-16T16:37:08.746Z,17.70
2022-10-16T16:39:35.570Z,17.70
2022-10-16T16:42:03.959Z,17.70
2022-10-16T16:44:30.856Z,17.50
2022-10-16T16:46:57.520Z,17.50
2022-10-16T16:49:24.392Z,17.40
2022-10-16T16:51:51.047Z,17.30
2022-10-16T16:54:17.798Z,17.30
2022-10-16T16:56:45.277Z,17.20
2022-10-16T16:59:18.698Z,17.10
2022-10-16T17:01:45.565Z,17.00
2022-10-16T17:04:12.695Z,17.00
2022-10-16T17:06:39.777Z,17.00
2022-10-16T17:09:07.561Z,17.00
2022-10-16T17:11:35.088Z,17.00
2022-10-16T17:14:02.459Z,17.00
2022-10-16T17:16:32.427Z,16.90
2022-10-16T17:19:06.299Z,16.90
2022-10-16T17:21:33.519Z,17.00
2022-10-16T17:24:01.016Z,16.70
2022-10-16T17:26:28.325Z,16.60
2022-10-16T17:29:01.569Z,16.60
2022-10-16T17:31:31.400Z,16.50
2022-10-16T17:34:02.358Z,16.40
2022-10-16T17:36:32.981Z,16.40
2022-10-16T17:39:04.939Z,16.30
2022-10-16T17:41:32.624Z,16.30
2022-10-16T17:43:59.455Z,16.20
2022-10-16T17:46:26.969Z,16.10
2022-10-16T17:48:55.425Z,16.10
2022-10-16T17:51:25.466Z,16.10
2022-10-16T17:54:02.264Z,16.00
2022-10-16T17:56:29.880Z,16.00
2022-10-16T17:59:01.800Z,16.00
2022-10-16T18:01:31.425Z,16.00
2022-10-16T18:04:00.750Z,15.90
2022-10-16T18:06:28.763Z,15.90
2022-10-16T18:08:57.353Z,15.80
2022-10-16T18:11:24.362Z,15.80
2022-10-16T18:13:55.754Z,15.70
2022-10-16T18:16:22.977Z,15.70
2022-10-16T18:18:50.429Z,15.60
2022-10-16T18:21:19.425Z,15.60
2022-10-16T18:23:50.931Z,15.50
2022-10-16T18:26:18.446Z,15.50
2022-10-16T18:28:45.166Z,15.40
2022-10-16T18:31:15.195Z,15.30
2022-10-16T18:33:48.005Z,15.20
2022-10-16T18:36:15.548Z,15.20
2022-10-16T18:38:42.268Z,15.20
2022-10-16T18:41:09.197Z,15.20
2022-10-16T18:43:37.161Z,15.30
2022-10-16T18:46:06.525Z,15.40
2022-10-16T18:48:33.478Z,15.30
2022-10-16T18:51:12.743Z,15.40
2022-10-16T18:53:41.906Z,15.30
2022-10-16T18:56:08.586Z,15.30
2022-10-16T18:58:36.074Z,15.30
2022-10-16T19:01:05.097Z,15.30
2022-10-16T19:03:32.242Z,15.30
2022-10-16T19:06:04.347Z,15.20
2022-10-16T19:08:33.583Z,15.20
2022-10-16T19:11:13.936Z,15.20
2022-10-16T19:13:41.140Z,15.10
2022-10-16T19:16:20.191Z,15.10
2022-10-16T19:18:47.903Z,15.10
2022-10-16T19:21:14.902Z,15.00
2022-10-16T19:23:42.100Z,15.00
2022-10-16T19:26:14.745Z,15.00
2022-10-16T19:28:44.254Z,15.00
2022-10-16T19:31:13.832Z,15.00
2022-10-16T19:33:41.497Z,15.00
2022-10-16T19:36:14.341Z,15.00
2022-10-16T19:38:41.995Z,14.90
2022-10-16T19:41:10.900Z,14.90
2022-10-16T19:43:38.130Z,14.80
2022-10-16T19:46:17.123Z,14.80
2022-10-16T19:48:44.463Z,14.80
2022-10-16T19:51:14.733Z,14.80
2022-10-16T19:53:42.004Z,14.80
2022-10-16T19:56:17.725Z,14.70
2022-10-16T19:58:45.689Z,14.70
2022-10-16T20:01:13.689Z,14.80
2022-10-16T20:03:40.485Z,14.80
2022-10-16T20:06:09.108Z,14.90
2022-10-16T20:08:41.022Z,14.90
2022-10-16T20:11:15.177Z,14.80
2022-10-16T20:13:42.620Z,14.90
2022-10-16T20:16:10.603Z,14.90
2022-10-16T20:18:37.518Z,14.90
2022-10-16T20:21:10.073Z,14.90
2022-10-16T20:23:36.699Z,14.90
2022-10-16T20:26:04.331Z,14.80
2022-10-16T20:28:31.557Z,14.70
2022-10-16T20:30:58.359Z,14.60
2022-10-16T20:33:25.081Z,14.60
2022-10-16T20:35:51.825Z,14.60
2022-10-16T20:38:18.977Z,14.70
2022-10-16T20:40:47.538Z,14.70
2022-10-16T20:43:16.954Z,14.70
2022-10-16T20:45:44.775Z,14.70
2022-10-16T20:48:13.070Z,14.60
2022-10-16T20:50:41.428Z,14.50
2022-10-16T20:53:08.603Z,14.50
2022-10-16T20:55:38.231Z,14.50
2022-10-16T20:58:05.878Z,14.40
2022-10-16T21:00:32.609Z,14.50
2022-10-16T21:02:59.257Z,14.40
2022-10-16T21:05:29.900Z,14.40
2022-10-16T21:07:57.314Z,14.50
2022-10-16T21:10:24.401Z,14.50
2022-10-16T21:12:55.028Z,14.50
2022-10-16T21:15:22.094Z,14.50
2022-10-16T21:17:48.696Z,14.60
2022-10-16T21:20:15.424Z,14.60
2022-10-16T21:22:42.047Z,14.60
2022-10-16T21:25:08.954Z,14.60
2022-10-16T21:27:40.121Z,14.70
2022-10-16T21:30:09.065Z,14.70
2022-10-16T21:32:37.254Z,14.70
2022-10-16T21:35:05.547Z,14.70
2022-10-16T21:37:33.152Z,14.60
2022-10-16T21:39:59.840Z,14.60
2022-10-16T21:42:26.690Z,14.50
2022-10-16T21:44:53.441Z,14.50
2022-10-16T21:47:20.095Z,14.50
2022-10-16T21:49:46.735Z,14.50
2022-10-16T21:52:13.354Z,14.50
2022-10-16T21:54:39.972Z,14.50
2022-10-16T21:57:06.600Z,14.40
2022-10-16T21:59:33.249Z,14.40
2022-10-16T22:02:02.504Z,14.40
2022-10-16T22:04:29.133Z,14.40
2022-10-16T22:06:55.825Z,14.40
2022-10-16T22:09:22.422Z,14.40
2022-10-16T22:11:50.463Z,14.30
2022-10-16T22:14:19.327Z,14.10
2022-10-16T22:16:46.976Z,14.00
2022-10-16T22:19:15.749Z,14.00
2022-10-16T22:21:43.774Z,14.00
2022-10-16T22:24:10.504Z,14.00
2022-10-16T22:26:38.155Z,14.00
2022-10-16T22:29:05.780Z,14.00
2022-10-16T22:31:33.169Z,14.00
2022-10-16T22:34:01.891Z,14.00
2022-10-16T22:36:29.459Z,14.00
2022-10-16T22:38:56.402Z,14.00
2022-10-16T22:41:24.671Z,14.00
2022-10-16T22:43:51.861Z,14.00
2022-10-16T22:46:31.069Z,14.00
2022-10-16T22:48:58.328Z,14.00
2022-10-16T22:51:26.732Z,14.20
2022-10-16T22:53:53.666Z,14.10
2022-10-16T22:56:21.600Z,14.20
2022-10-16T22:58:48.547Z,14.10
2022-10-16T23:01:16.755Z,14.10
2022-10-16T23:03:43.430Z,14.20
2022-10-16T23:06:10.385Z,14.20
2022-10-16T23:08:37.558Z,14.30
2022-10-16T23:11:09.263Z,14.30
2022-10-16T23:13:37.299Z,14.30
2022-10-16T23:16:05.671Z,14.30
2022-10-16T23:18:34.571Z,14.30
2022-10-16T23:21:05.656Z,14.30
2022-10-16T23:23:32.276Z,14.20
2022-10-16T23:25:58.968Z,14.30
2022-10-16T23:28:25.609Z,14.40
2022-10-16T23:30:52.238Z,14.40
2022-10-16T23:33:18.829Z,14.50
2022-10-16T23:35:45.420Z,14.50
2022-10-16T23:38:12.192Z,13.20
2022-10-16T23:40:38.871Z,14.40
2022-10-16T23:43:05.477Z,14.40
2022-10-16T23:45:32.070Z,14.40
2022-10-16T23:47:58.728Z,14.50
2022-10-16T23:50:25.382Z,14.40
2022-10-16T23:52:52.005Z,14.40
2022-10-16T23:55:18.661Z,14.30
2022-10-16T23:57:45.335Z,14.40
